Tiempo atmosférico en la estación meteorológica de Amurrio, Araba/Álava (240 m.)



Fecha
DESCASC
Temp. máxima en grados centígrados (hora)
DESCASC
Temp. mínima en grados centígrados (hora)
DESCASC
Temp. media en grados centígrados
DESCASC
Racha de viento máxima en m/sg (hora)
DESCASC
Velocidad máxima media en intervalos de 10 minutos(hora)
DESCASC
Precipitaciones diarias en mm
DESCASC
Precipitaciones de 00:00 a 06:00 en mm
DESCASC
Precipitaciones de 06:00 a 12:00 en mm
DESCASC
Precipitaciones de 12:00 a 18:00 en mm
DESCASC
Precipitaciones de 18:00 a 24:00 en mm
DESCASC
08-12-2019 11.2 (15:10) 3.3 (06:40) 7.2 5 (18:40) 2.5 (18:50) 2.4 0 0.4 2 0
07-12-2019 14.6 (16:10) 2.5 (08:30) 8.6 2.78 (16:40) 2.22 (16:40) 0 0 0 0 0
06-12-2019 14.5 (14:50) 1.2 (08:30) 7.9 6.39 (13:10) 3.89 (13:00) 0 0 0 0 0
05-12-2019 12 (14:10) 7 (00:00) 9.5 7.78 (04:30) 3.89 (04:40) 0 0 0 0 0
04-12-2019 11.2 (15:10) -0.4 (00:00) 5.4 6.11 (22:00) 3.61 (21:30) 0 0 0 0 0
03-12-2019 7.9 (14:40) 0.5 (00:00) 4.2 4.17 (03:50) 2.5 (22:00) 1.4 1.2 0.2 0 0
02-12-2019 8.8 (11:10) 6.2 (00:00) 7.5 6.11 (13:10) 3.33 (13:10) 5.2 3.4 1.6 0 0.2
01-12-2019 13.1 (12:10) 4.6 (00:00) 8.9 5 (16:00) 3.06 (16:00) 3.2 0 0 1.2 2
30-11-2019 16.5 (10:40) 6.1 (00:00) 11.3 12.22 (08:50) 6.94 (08:50) 26.8 0 0 26.8 0
29-11-2019 15.7 (13:00) 6.5 (00:00) 11.1 3.89 (00:20) 2.22 (00:20) 1 0.8 0 0.2 0
28-11-2019 13.5 (04:00) 9.6 (00:00) 11.6 8.06 (04:00) 2.78 (03:50) 4.4 0 0 3.4 1
27-11-2019 16.1 (00:00) 9.5 (00:00) 12.8 22.5 (02:20) 11.39 (02:20) 2.4 0 0 2.4 0
26-11-2019 19.7 (16:10) 8.2 (00:00) 14 19.17 (19:40) 7.78 (21:00) 0.8 0 0 0 0.8
25-11-2019 17.3 (14:00) 8 (00:00) 12.6 9.44 (00:30) 4.17 (00:30) 0 0 0 0 0
24-11-2019 12.9 (14:20) 7.2 (00:00) 10 9.17 (17:10) 4.72 (19:50) 7.2 2.8 1.6 0 2.8
23-11-2019 13.3 (00:30) 8.1 (00:00) 10.7 12.78 (09:50) 4.72 (11:40) 22 4 14.4 1.8 1.8
22-11-2019 13.6 (20:30) 8 (00:00) 10.8 15.56 (11:10) 8.33 (11:10) 5.4 0 0 5.2 0.2
21-11-2019 15 (12:50) 5.6 (00:00) 10.3 8.06 (07:00) 4.72 (06:00) 0 0 0 0 0
20-11-2019 12.5 (12:40) 3 (00:00) 7.8 9.72 (13:50) 5 (09:00) 0 0 0 0 0
19-11-2019 11.8 (13:00) 2.4 (00:00) 7.1 5 (13:10) 3.06 (13:20) 0.2 0.2 0 0 0
18-11-2019 9 (16:30) 4.4 (00:00) 6.7 5 (10:20) 2.22 (10:20) 9 6 1.6 1.2 0.2
17-11-2019 12.1 (14:10) 5.5 (00:00) 8.8 8.33 (22:10) 4.17 (22:40) 7.6 0.4 2.4 0.8 4
16-11-2019 9.3 (14:50) 0.9 (00:00) 5.1 8.33 (10:50) 2.78 (10:30) 6.6 0 4 2.4 0.2
15-11-2019 8 (13:10) 2 (00:00) 5 8.89 (10:20) 3.33 (10:00) 17.4 1.6 9.6 5.6 0.6
14-11-2019 11.5 (15:00) 3.1 (00:00) 7.3 8.06 (12:00) 3.89 (15:10) 10.6 10.6 0 0 0
13-11-2019 12.4 (12:40) 7.6 (00:00) 10 6.11 (13:10) 3.61 (13:40) 11.2 6.8 4.4 0 0
12-11-2019 13 (15:10) 6 (00:00) 9.5 3.33 (13:30) 1.94 (13:30) 11.6 1.6 0.4 0.2 9.4

Gráficas

Temp. máximas Temp. mínimas Temp. medias Precipitaciones Rachas de viento máximas Velocidades máximas media en intervalos de 10 minutos

Datos horarios

Fecha y hora oficial Temperatura (ºC) Velocidad del viento (km/h) Dirección del viento Racha (km/h) Dirección de racha Precipitación (mm) Presión (hPa) Tendencia (hPa) Humedad (%)
2019-12-11 23:00:00 8 2 Noroeste 12 Oeste 0.6 -- -- 89
2019-12-11 22:00:00 8.1 4 Este 12 Norte 0 -- -- 87
2019-12-11 21:00:00 9 6 Norte 31 Oeste 0.4 -- -- 80
2019-12-11 20:00:00 10.5 16 Noroeste 43 Oeste 0 -- -- 69
2019-12-11 19:00:00 9.5 7 Oeste 23 Noroeste 0 -- -- 61
2019-12-11 18:00:00 7.8 2 Sur 15 Sudoeste 0 -- -- 72
2019-12-11 17:00:00 10.8 3 Noroeste 15 Oeste 0 -- -- 52
2019-12-11 16:00:00 11.4 6 Noroeste 31 Oeste 0 -- -- 50
2019-12-11 15:00:00 11.5 5 Noroeste 19 Noroeste 0 -- -- 56
2019-12-11 14:00:00 11.3 6 Noroeste 23 Norte 0 -- -- 59
2019-12-11 13:00:00 9.8 6 Noroeste 13 Noroeste 0 -- -- 77
2019-12-11 12:00:00 8.6 2 Nordeste 15 Noroeste 0 -- -- 91
2019-12-11 11:00:00 7.7 5 Norte 13 Noroeste 0 -- -- 99
2019-12-11 10:00:00 7.2 0 Calma 6 Nordeste 0.8 -- -- 98
2019-12-11 09:00:00 7 3 Sudoeste 7 Sudoeste 0.8 -- -- 97
2019-12-11 08:00:00 7 2 Norte 8 Nordeste 1.2 -- -- 92
2019-12-11 07:00:00 7 3 Sudoeste 8 Sur 0 -- -- 86
2019-12-11 06:00:00 6.7 3 Noroeste 10 Noroeste 0 -- -- 82
2019-12-11 05:00:00 5.7 3 Oeste 8 Sudeste 0 -- -- 90
2019-12-11 04:00:00 6.4 2 Oeste 7 Noroeste 0 -- -- 88
2019-12-11 03:00:00 6.5 2 Oeste 11 Sudeste 0 -- -- 89
2019-12-11 02:00:00 6.8 3 Nordeste 10 Este 0 -- -- 88
2019-12-11 01:00:00 7.2 2 Noroeste 12 Oeste 0 -- -- 86
2019-12-11 00:00:00 7 0 Calma 6 Oeste 0 -- -- 89
2019-12-10 23:00:00 7.9 3 Oeste 8 Sudoeste 0 -- -- 90
2019-12-10 22:00:00 8.2 0 Calma 5 Oeste 0 -- -- 91
2019-12-10 21:00:00 8 2 Norte 6 Sudoeste 0 -- -- 91
2019-12-10 20:00:00 8 3 Oeste 9 Sudoeste 0 -- -- 88
2019-12-10 19:00:00 8.9 5 Oeste 10 Sudoeste 0 -- -- 84
2019-12-10 18:00:00 10 6 Sudoeste 10 Sudoeste 0 -- -- 81
2019-12-10 17:00:00 12.1 4 Oeste 8 Sudoeste 0 -- -- 76
2019-12-10 16:00:00 13.7 5 Sudoeste 8 Sudoeste 0 -- -- 69
2019-12-10 15:00:00 13.7 0 Calma 8 Noroeste 0 -- -- 60
2019-12-10 14:00:00 13.6 3 Noroeste 13 Sudeste 0 -- -- 65
2019-12-10 13:00:00 12.7 2 Norte 7 Nordeste 0 -- -- 67
2019-12-10 12:00:00 8.9 0 Calma 4 Nordeste 0 -- -- 89
2019-12-10 11:00:00 6.6 0 Calma 4 Sudeste 0 -- -- 97
2019-12-10 10:00:00 3.3 0 Calma 2 Nordeste 0 -- -- 100
2019-12-10 09:00:00 1.4 0 Calma 2 Oeste 0 -- -- 100
2019-12-10 08:00:00 1.9 0 Calma 8 Sudoeste 0 -- -- 100
2019-12-10 07:00:00 2.5 3 Oeste 7 Oeste 0 -- -- 100
2019-12-10 06:00:00 3 3 Sur 6 Sur 0 -- -- 100
2019-12-10 05:00:00 4.1 0 Calma 9 Sur 0 -- -- 99
2019-12-10 04:00:00 4.1 3 Sudoeste 5 Sudoeste 0 -- -- 98
2019-12-10 03:00:00 5.4 2 Sudoeste 4 Sudoeste 0 -- -- 98
2019-12-10 02:00:00 5.9 2 Norte 9 Sudoeste 0 -- -- 98
2019-12-10 01:00:00 7.3 0 Calma 7 Sudoeste 0 -- -- 98
2019-12-10 00:00:00 7.4 2 Este 4 Nordeste 0 -- -- 98
2019-12-09 23:00:00 7.6 2 Oeste 6 Oeste 0 -- -- 97
2019-12-09 22:00:00 8.2 0 Calma 5 Sudoeste 0 -- -- 96
2019-12-09 21:00:00 8.5 4 Sudoeste 5 Sudoeste 0 -- -- 95
2019-12-09 20:00:00 8.9 0 Calma 7 Norte 0 -- -- 91
2019-12-09 19:00:00 9.4 5 Noroeste 15 Norte 0 -- -- 88
2019-12-09 18:00:00 9.5 2 Noroeste 9 Norte 0 -- -- 92
2019-12-09 17:00:00 9.9 2 Sudeste 23 Norte 0.2 -- -- 89
2019-12-09 16:00:00 10 12 Noroeste 37 Noroeste 0.8 -- -- 91
2019-12-09 15:00:00 10.5 11 Norte 22 Noroeste 0.2 -- -- 89
2019-12-09 14:00:00 10.9 10 Norte 33 Noroeste 0 -- -- 84
2019-12-09 13:00:00 11 13 Noroeste 35 Noroeste 0 -- -- 82
2019-12-09 12:00:00 11.2 8 Noroeste 32 Noroeste 0 -- -- 75
2019-12-09 11:00:00 10.7 20 Noroeste 41 Noroeste 0 -- -- 81
2019-12-09 10:00:00 8.5 5 Noroeste 17 Noroeste 0 -- -- 100
2019-12-09 09:00:00 6.8 2 Sudeste 23 Oeste 0 -- -- 100
2019-12-09 08:00:00 4.8 3 Sudeste 9 Oeste 0 -- -- 100
2019-12-09 07:00:00 3.7 0 Calma 9 Oeste 0 -- -- 100
2019-12-09 06:00:00 3.6 0 Calma 8 Sudoeste 0.2 -- -- 100
2019-12-09 05:00:00 3.1 0 Calma 5 Oeste 0 -- -- 100
2019-12-09 04:00:00 3.2 0 Calma 6 Oeste 0 -- -- 100
2019-12-09 03:00:00 3.7 3 Sur 8 Oeste 0 -- -- 100
2019-12-09 02:00:00 4.2 4 Sudoeste 7 Sudoeste 0 -- -- 100
2019-12-09 01:00:00 5.2 3 Sudeste 13 Oeste 0 -- -- 100
2019-12-09 00:00:00 6 3 Este 6 Sudeste 0 -- -- 100
2019-12-08 23:00:00 6.7 2 Sudoeste 6 Sudoeste 0 -- -- 98
2019-12-08 22:00:00 8 0 Calma 9 Sur 0 -- -- 98
2019-12-08 21:00:00 9.4 2 Noroeste 10 Sur 0 -- -- 96
2019-12-08 20:00:00 10.4 3 Sudoeste 12 Noroeste 0 -- -- 95
2019-12-08 19:00:00 11 8 Noroeste 18 Noroeste 0 -- -- 94
2019-12-08 18:00:00 10.8 3 Noroeste 10 Oeste 0 -- -- 100
2019-12-08 17:00:00 10.9 3 Oeste 5 Oeste 0.4 -- -- 100
2019-12-08 16:00:00 11.1 0 Calma 5 Oeste 0.4 -- -- 99
2019-12-08 15:00:00 11.1 0 Calma 3 Sudoeste 0.4 -- -- 99
2019-12-08 14:00:00 10.5 0 Calma 3 Noroeste 0.2 -- -- 99
2019-12-08 13:00:00 9.6 2 Oeste 4 Sudeste 0.6 -- -- 99
2019-12-08 12:00:00 8.8 0 Calma 5 Noroeste 0.4 -- -- 99
2019-12-08 11:00:00 7.3 0 Calma 5 Noroeste 0 -- -- 100
2019-12-08 10:00:00 6.2 0 Calma 4 Oeste 0 -- -- 100
2019-12-08 09:00:00 4.7 2 Este 6 Oeste 0 -- -- 100
2019-12-08 08:00:00 3.7 0 Calma 10 Sudoeste 0 -- -- 100
2019-12-08 07:00:00 3.5 5 Oeste 10 Sudoeste 0 -- -- 100
2019-12-08 06:00:00 3.7 5 Oeste 8 Sudoeste 0 -- -- 100
2019-12-08 05:00:00 3.7 2 Sudeste 6 Oeste 0 -- -- 99
2019-12-08 04:00:00 4.3 0 Calma 6 Oeste 0 -- -- 99
2019-12-08 03:00:00 4.4 2 Sudoeste 6 Sudoeste 0 -- -- 99
2019-12-08 02:00:00 4.6 3 Sudoeste 7 Oeste 0 -- -- 97
2019-12-08 01:00:00 5.6 0 Calma 3 Sudoeste 0 -- -- 97
2019-12-08 00:00:00 6.1 0 Calma 8 Sur 0 -- -- 96
2019-12-07 23:00:00 6.9 2 Sudoeste 8 Oeste 0 -- -- 97
2019-12-07 22:00:00 6.4 4 Sudoeste 7 Sudoeste 0 -- -- 96
2019-12-07 21:00:00 6.6 4 Sudoeste 6 Oeste 0 -- -- 93
2019-12-07 20:00:00 8 5 Oeste 8 Sudoeste 0 -- -- 91
2019-12-07 19:00:00 9.7 3 Sur 7 Oeste 0 -- -- 86
2019-12-07 18:00:00 11.1 3 Sudoeste 6 Sur 0 -- -- 80
2019-12-07 17:00:00 13.1 5 Sudoeste 10 Sudoeste 0 -- -- 76
2019-12-07 16:00:00 14.5 2 Noroeste 4 Noroeste 0 -- -- 65
2019-12-07 15:00:00 14.4 3 Oeste 5 Oeste 0 -- -- 66
2019-12-07 14:00:00 13.7 3 Noroeste 6 Noroeste 0 -- -- 68
2019-12-07 13:00:00 12.3 0 Calma 6 Sudeste 0 -- -- 74
2019-12-07 12:00:00 10.4 3 Sudeste 5 Sudeste 0 -- -- 81
2019-12-07 11:00:00 6.9 0 Calma 4 Norte 0 -- -- 96
2019-12-07 10:00:00 4.6 0 Calma 6 Sudoeste 0 -- -- 99
2019-12-07 09:00:00 2.8 3 Oeste 6 Sudoeste 0 -- -- 100
2019-12-07 08:00:00 2.7 0 Calma 2 Sudoeste 0 -- -- 99
2019-12-07 07:00:00 3.4 0 Calma 4 Oeste 0 -- -- 99
2019-12-07 06:00:00 3.9 0 Calma 8 Oeste 0 -- -- 99
2019-12-07 05:00:00 4.3 0 Calma 4 Sur 0 -- -- 99
2019-12-07 04:00:00 4.5 0 Calma 6 Oeste 0 -- -- 98
2019-12-07 03:00:00 4.9 3 Sudoeste 5 Sudoeste 0 -- -- 96
2019-12-07 02:00:00 6.4 0 Calma 3 Sudeste 0 -- -- 96
2019-12-07 01:00:00 6.8 0 Calma 6 Oeste 0 -- -- 96
2019-12-07 00:00:00 6.4 0 Calma 3 Sudoeste 0 -- -- 96
2019-12-06 23:00:00 6.3 0 Calma 5 Sur 0 -- -- 95
2019-12-06 22:00:00 6.3 2 Oeste 7 Sur 0 -- -- 94
2019-12-06 21:00:00 6.5 0 Calma 9 Sudoeste 0 -- -- 93
2019-12-06 20:00:00 7.3 4 Sudoeste 8 Sudoeste 0 -- -- 90
2019-12-06 19:00:00 8.6 2 Sudoeste 9 Sudoeste 0 -- -- 86
2019-12-06 18:00:00 10.6 4 Oeste 7 Oeste 0 -- -- 82
2019-12-06 17:00:00 13.3 2 Sudoeste 16 Sudeste 0 -- -- 69
2019-12-06 16:00:00 14.2 7 Sudeste 17 Este 0 -- -- 63
2019-12-06 15:00:00 14.5 8 Sudeste 16 Sur 0 -- -- 62
2019-12-06 14:00:00 14.1 9 Sur 23 Sudeste 0 -- -- 63
2019-12-06 13:00:00 13.7 14 Sur 22 Sur 0 -- -- 63
2019-12-06 12:00:00 11.4 5 Sur 12 Sur 0 -- -- 74
2019-12-06 11:00:00 7.1 0 Calma 4 Este 0 -- -- 98
2019-12-06 10:00:00 4.4 3 Noroeste 8 Oeste 0 -- -- 100
2019-12-06 09:00:00 1.6 2 Sudoeste 7 Oeste 0 -- -- 100
2019-12-06 08:00:00 1.5 0 Calma 3 Sudoeste 0 -- -- 100
2019-12-06 07:00:00 2 0 Calma 5 Oeste 0 -- -- 100
2019-12-06 06:00:00 2.6 0 Calma 2 Oeste 0 -- -- 99
2019-12-06 05:00:00 3 0 Calma 4 Oeste 0 -- -- 98
2019-12-06 04:00:00 3.6 0 Calma 5 Sur 0 -- -- 98
2019-12-06 03:00:00 5 4 Sudeste 9 Sudeste 0 -- -- 98
2019-12-06 02:00:00 5.6 0 Calma 9 Sudeste 0 -- -- 99
2019-12-06 01:00:00 5.8 0 Calma 7 Oeste 0 -- -- 98
2019-12-06 00:00:00 7 0 Calma 5 Oeste 0 -- -- 98
2019-12-05 23:00:00 7 0 Calma 4 Oeste 0 -- -- 97
2019-12-05 22:00:00 8.1 0 Calma 3 Sudoeste 0 -- -- 96
2019-12-05 21:00:00 8.6 0 Calma 3 Oeste 0 -- -- 95
2019-12-05 20:00:00 9 2 Nordeste 9 Noroeste 0 -- -- 94
2019-12-05 19:00:00 9.5 5 Noroeste 12 Norte 0 -- -- 93
2019-12-05 18:00:00 10.4 7 Noroeste 16 Oeste 0 -- -- 89
2019-12-05 17:00:00 11.4 6 Noroeste 18 Noroeste 0 -- -- 86
2019-12-05 16:00:00 11.8 5 Oeste 13 Noroeste 0 -- -- 83
2019-12-05 15:00:00 12 4 Noroeste 10 Noroeste 0 -- -- 82
2019-12-05 14:00:00 11.8 5 Norte 12 Noroeste 0 -- -- 82
2019-12-05 13:00:00 11 4 Sur 7 Sudeste 0 -- -- 82
2019-12-05 12:00:00 9.7 0 Calma 2 Este 0 -- -- 86
2019-12-05 11:00:00 8.9 0 Calma 3 Sur 0 -- -- 88
2019-12-05 10:00:00 8.3 0 Calma 3 Sur 0 -- -- 91
2019-12-05 09:00:00 8 0 Calma 6 Noroeste 0 -- -- 90
2019-12-05 08:00:00 8.1 5 Norte 12 Norte 0 -- -- 89
2019-12-05 07:00:00 8.1 4 Noroeste 12 Norte 0 -- -- 88
2019-12-05 06:00:00 8.2 5 Noroeste 21 Norte 0 -- -- 86
2019-12-05 05:00:00 8.5 12 Noroeste 28 Noroeste 0 -- -- 84
2019-12-05 04:00:00 8.7 5 Norte 11 Noroeste 0 -- -- 87
2019-12-05 03:00:00 8.9 3 Norte 16 Norte 0 -- -- 84
2019-12-05 02:00:00 9.2 7 Norte 17 Norte 0 -- -- 86
2019-12-05 01:00:00 9 3 Norte 15 Noroeste 0 -- -- 88
2019-12-05 00:00:00 8.8 3 Norte 14 Noroeste 0 -- -- 87
2019-12-04 23:00:00 9.1 10 Noroeste 21 Oeste 0 -- -- 85
2019-12-04 22:00:00 8.9 12 Noroeste 22 Noroeste 0 -- -- 89
2019-12-04 21:00:00 9.2 7 Noroeste 15 Noroeste 0 -- -- 83
2019-12-04 20:00:00 9 6 Noroeste 14 Norte 0 -- -- 84
2019-12-04 19:00:00 9 6 Noroeste 12 Noroeste 0 -- -- 80
2019-12-04 18:00:00 8.8 7 Noroeste 14 Noroeste 0 -- -- 82
2019-12-04 17:00:00 9.8 10 Noroeste 21 Noroeste 0 -- -- 74
2019-12-04 16:00:00 10.8 9 Norte 18 Norte 0 -- -- 72
2019-12-04 15:00:00 11.1 8 Norte 15 Norte 0 -- -- 70
2019-12-04 14:00:00 11 7 Norte 15 Noroeste 0 -- -- 71
2019-12-04 13:00:00 9.7 3 Nordeste 6 Nordeste 0 -- -- 77
2019-12-04 12:00:00 7.4 3 Nordeste 5 Este 0 -- -- 82
2019-12-04 11:00:00 3.8 2 Sur 6 Sudoeste 0 -- -- 100
2019-12-04 10:00:00 1.4 0 Calma 5 Sudoeste 0 -- -- 100
2019-12-04 09:00:00 0.2 0 Calma 6 Oeste 0 -- -- 100
2019-12-04 08:00:00 -0.1 0 Calma 4 Oeste 0 -- -- 100
2019-12-04 07:00:00 -0.2 3 Oeste 5 Oeste 0 -- -- 100
2019-12-04 06:00:00 -0.2 0 Calma 6 Sudoeste 0 -- -- 100
2019-12-04 05:00:00 -0.3 0 Calma 5 Oeste 0 -- -- 100
2019-12-04 04:00:00 -0.3 3 Sur 7 Sudoeste 0 -- -- 100
2019-12-04 03:00:00 -0.3 0 Calma 5 Oeste 0 -- -- 100
2019-12-04 02:00:00 -0.3 0 Calma 5 Sudoeste 0 -- -- 100
2019-12-04 01:00:00 0.2 0 Calma 4 Noroeste 0 -- -- 100
2019-12-04 00:00:00 0.5 2 Sur 6 Sudoeste 0 -- -- 99
2019-12-03 23:00:00 1.1 4 Sudoeste 9 Sudoeste 0 -- -- 98
2019-12-03 22:00:00 1.6 9 Sudoeste 13 Sudoeste 0 -- -- 98
2019-12-03 21:00:00 2.3 0 Calma 5 Oeste 0 -- -- 97
2019-12-03 20:00:00 3 0 Calma 8 Sudoeste 0 -- -- 95
2019-12-03 19:00:00 4.5 3 Nordeste 8 Sudoeste 0 -- -- 94
2019-12-03 18:00:00 5.5 6 Sudoeste 9 Sudoeste 0 -- -- 89
2019-12-03 17:00:00 7.1 2 Oeste 5 Noroeste 0 -- -- 80
2019-12-03 16:00:00 7.6 3 Este 9 Este 0 -- -- 75
2019-12-03 15:00:00 7.9 3 Nordeste 10 Norte 0 -- -- 73
2019-12-03 14:00:00 7.4 0 Calma 8 Noroeste 0 -- -- 80
2019-12-03 13:00:00 7.2 5 Norte 12 Noroeste 0 -- -- 85
2019-12-03 12:00:00 6.7 5 Noroeste 13 Noroeste 0 -- -- 86
2019-12-03 11:00:00 6.3 5 Noroeste 13 Noroeste 0 -- -- 89
2019-12-03 10:00:00 5.9 2 Norte 8 Noroeste 0 -- -- 93
2019-12-03 09:00:00 5.6 3 Oeste 9 Oeste 0 -- -- 95
2019-12-03 08:00:00 5.6 4 Oeste 8 Noroeste 0 -- -- 96
2019-12-03 07:00:00 5.6 4 Noroeste 13 Noroeste 0.2 -- -- 96
2019-12-03 06:00:00 5.5 5 Noroeste 10 Oeste 0.4 -- -- 96
2019-12-03 05:00:00 5.5 5 Noroeste 13 Noroeste 0.2 -- -- 93
2019-12-03 04:00:00 5.5 6 Noroeste 15 Noroeste 0 -- -- 92
2019-12-03 03:00:00 5.5 3 Oeste 12 Noroeste 0.4 -- -- 96
2019-12-03 02:00:00 5.9 5 Noroeste 14 Noroeste 0.2 -- -- 93
2019-12-03 01:00:00 6.1 3 Noroeste 9 Noroeste 0 -- -- 93
2019-12-03 00:00:00 6.2 6 Noroeste 15 Noroeste 0.2 -- -- 91
2019-12-02 23:00:00 6.6 5 Noroeste 13 Oeste 0 -- -- 86
2019-12-02 22:00:00 6.6 5 Noroeste 15 Oeste 0 -- -- 86
2019-12-02 21:00:00 6.6 8 Noroeste 17 Norte 0 -- -- 88
2019-12-02 20:00:00 6.6 6 Noroeste 16 Oeste 0 -- -- 88
2019-12-02 19:00:00 6.7 5 Noroeste 13 Noroeste 0 -- -- 87
2019-12-02 18:00:00 6.8 7 Noroeste 13 Noroeste 0 -- -- 88
2019-12-02 17:00:00 7.2 6 Noroeste 14 Noroeste 0 -- -- 87
2019-12-02 16:00:00 7.8 7 Noroeste 16 Norte 0 -- -- 88
2019-12-02 15:00:00 8 9 Noroeste 21 Noroeste 0 -- -- 90
2019-12-02 14:00:00 8.3 9 Noroeste 22 Noroeste 0 -- -- 91
2019-12-02 13:00:00 8.7 11 Noroeste 20 Noroeste 0 -- -- 94
2019-12-02 12:00:00 8.6 8 Noroeste 16 Noroeste 0.8 -- -- 96
2019-12-02 11:00:00 8.7 5 Noroeste 12 Oeste 0.4 -- -- 95
2019-12-02 10:00:00 8.7 7 Noroeste 20 Oeste 0 -- -- 94
2019-12-02 09:00:00 8.4 6 Oeste 14 Noroeste 0 -- -- 96
2019-12-02 08:00:00 8.2 8 Noroeste 19 Noroeste 0.2 -- -- 99
2019-12-02 07:00:00 7.8 0 Calma 4 Este 0.2 -- -- 100
2019-12-02 06:00:00 7.7 2 Este 5 Este 0.2 -- -- 100
2019-12-02 05:00:00 7.7 2 Este 4 Norte 1 -- -- 100
2019-12-02 04:00:00 7.6 3 Nordeste 5 Norte 0.4 -- -- 100
2019-12-02 03:00:00 7.6 2 Oeste 5 Sudoeste 1.8 -- -- 100
2019-12-02 02:00:00 7.5 0 Calma 3 Oeste 0 -- -- 99
2019-12-02 01:00:00 7.7 3 Oeste 4 Oeste 0 -- -- 99
2019-12-02 00:00:00 7.8 0 Calma 4 Este 0 -- -- 98
2019-12-01 23:00:00 8.1 0 Calma 7 Oeste 0 -- -- 97
2019-12-01 22:00:00 8.6 0 Calma 10 Noroeste 2 -- -- 95
2019-12-01 21:00:00 9.1 3 Noroeste 9 Oeste 0 -- -- 89
2019-12-01 20:00:00 9.4 5 Oeste 16 Noroeste 0 -- -- 91
2019-12-01 19:00:00 8.7 5 Oeste 6 Oeste 0 -- -- 96
2019-12-01 18:00:00 10 0 Calma 5 Oeste 0.2 -- -- 93
2019-12-01 17:00:00 11.1 4 Oeste 18 Noroeste 1 -- -- 90
2019-12-01 16:00:00 12.5 11 Noroeste 18 Noroeste 0 -- -- 75
2019-12-01 15:00:00 12.9 7 Noroeste 13 Oeste 0 -- -- 67
2019-12-01 14:00:00 12.9 4 Nordeste 9 Nordeste 0 -- -- 66
2019-12-01 13:00:00 12.7 0 Calma 6 Sur 0 -- -- 68
2019-12-01 12:00:00 13 2 Sudeste 5 Este 0 -- -- 73
2019-12-01 11:00:00 9.4 0 Calma 4 Este 0 -- -- 95
2019-12-01 10:00:00 7.9 0 Calma 6 Sudoeste 0 -- -- 95
2019-12-01 09:00:00 7.2 2 Sur 10 Sudoeste 0 -- -- 96
2019-12-01 08:00:00 6.7 5 Oeste 10 Sudoeste 0 -- -- 96
2019-12-01 07:00:00 7 3 Oeste 12 Sudeste 0 -- -- 92
2019-12-01 06:00:00 6.8 6 Sudeste 18 Este 0 -- -- 96
2019-12-01 05:00:00 5.8 4 Nordeste 15 Sudeste 0 -- -- 100
2019-12-01 04:00:00 5.4 2 Norte 15 Este 0 -- -- 100
2019-12-01 03:00:00 4.7 3 Sudoeste 8 Sudoeste 0 -- -- 100
2019-12-01 02:00:00 4.7 3 Sudoeste 8 Sudoeste 0 -- -- 100
2019-12-01 01:00:00 5.2 0 Calma 9 Sudoeste 0 -- -- 100
2019-12-01 00:00:00 6.1 0 Calma 6 Sudoeste 0 -- -- 100
2019-11-30 23:00:00 6.9 0 Calma 4 Sudoeste 0 -- -- 100
2019-11-30 22:00:00 7.5 0 Calma 5 Este 0 -- -- 100
2019-11-30 21:00:00 7.2 0 Calma 8 Sudoeste 0 -- -- 99
2019-11-30 20:00:00 7.9 5 Oeste 7 Sudoeste 0 -- -- 97
2019-11-30 19:00:00 9.4 0 Calma 8 Nordeste 0 -- -- 98
2019-11-30 18:00:00 10 2 Oeste 21 Este 1 -- -- 97
2019-11-30 17:00:00 10.4 3 Oeste 5 Oeste 1.2 -- -- 98
2019-11-30 16:00:00 10.6 0 Calma 6 Sudoeste 1.8 -- -- 98
2019-11-30 15:00:00 10.6 3 Sudeste 7 Sur 5.6 -- -- 98
2019-11-30 14:00:00 10.7 0 Calma 17 Oeste 15.2 -- -- 97
2019-11-30 13:00:00 10.9 6 Noroeste 26 Noroeste 2 -- -- 95
2019-11-30 12:00:00 15.6 5 Nordeste 22 Este 0 -- -- 75
2019-11-30 11:00:00 16.3 10 Sudeste 31 Este 0 -- -- 72
2019-11-30 10:00:00 15.9 17 Este 39 Este 0 -- -- 72
2019-11-30 09:00:00 15.2 23 Este 44 Este 0 -- -- 74
2019-11-30 08:00:00 15.4 19 Este 35 Este 0 -- -- 75
2019-11-30 07:00:00 15.3 16 Este 37 Este 0 -- -- 75
2019-11-30 06:00:00 14.7 18 Este 40 Este 0 -- -- 76
2019-11-30 05:00:00 14.3 14 Sudeste 23 Este 0 -- -- 76
2019-11-30 04:00:00 14.5 8 Este 32 Este 0 -- -- 76
2019-11-30 03:00:00 12.9 11 Sudeste 23 Este 0 -- -- 83
2019-11-30 02:00:00 11.7 4 Sur 21 Sur 0 -- -- 92
2019-11-30 01:00:00 7.2 4 Sur 9 Sudoeste 0 -- -- 100
2019-11-30 00:00:00 6.7 2 Sudeste 7 Sur 0 -- -- 100
2019-11-29 23:00:00 6.9 2 Oeste 8 Sudoeste 0 -- -- 99
2019-11-29 22:00:00 7.2 0 Calma 5 Sur 0 -- -- 98
2019-11-29 21:00:00 7.9 2 Noroeste 6 Sudoeste 0 -- -- 98
2019-11-29 20:00:00 8.7 0 Calma 4 Oeste 0 -- -- 96
2019-11-29 19:00:00 9.5 3 Sudoeste 5 Sudoeste 0 -- -- 95
2019-11-29 18:00:00 11.5 0 Calma 7 Sudoeste 0 -- -- 89
2019-11-29 17:00:00 13.7 4 Sudoeste 9 Norte 0 -- -- 82
2019-11-29 16:00:00 14.8 4 Sudoeste 9 Noroeste 0 -- -- 78
2019-11-29 15:00:00 15.4 3 Noroeste 6 Oeste 0 -- -- 71
2019-11-29 14:00:00 15 2 Sur 6 Nordeste 0 -- -- 73
2019-11-29 13:00:00 15.7 0 Calma 6 Este 0.2 -- -- 69
2019-11-29 12:00:00 13.4 0 Calma 4 Sudoeste 0 -- -- 100
2019-11-29 11:00:00 10.4 2 Norte 4 Sudoeste 0 -- -- 100
2019-11-29 10:00:00 9.7 0 Calma 4 Sudoeste 0 -- -- 100
2019-11-29 09:00:00 9.7 2 Oeste 5 Sudoeste 0 -- -- 100
2019-11-29 08:00:00 10.2 0 Calma 4 Oeste 0 -- -- 100
2019-11-29 07:00:00 10.3 0 Calma 4 Sudoeste 0 -- -- 100
2019-11-29 06:00:00 10.4 0 Calma 4 Nordeste 0 -- -- 100
2019-11-29 05:00:00 10.6 0 Calma 4 Norte 0 -- -- 100
2019-11-29 04:00:00 10.8 0 Calma 4 Sudoeste 0 -- -- 99
2019-11-29 03:00:00 11.6 0 Calma 3 Oeste 0.2 -- -- 98
2019-11-29 02:00:00 11.9 0 Calma 5 Este 0.6 -- -- 98
2019-11-29 01:00:00 12.2 2 Noroeste 14 Noroeste 0 -- -- 96
2019-11-29 00:00:00 11.7 4 Noroeste 11 Noroeste 0.2 -- -- 99
2019-11-28 23:00:00 11.3 2 Noroeste 8 Sudoeste 0 -- -- 99
2019-11-28 22:00:00 11.1 2 Sur 12 Sudoeste 0 -- -- 99
2019-11-28 21:00:00 10.8 2 Nordeste 6 Sudoeste 0 -- -- 98
2019-11-28 20:00:00 10.8 3 Oeste 10 Sudoeste 0 -- -- 97
2019-11-28 19:00:00 10.8 3 Este 7 Este 0.8 -- -- 97
2019-11-28 18:00:00 11.1 2 Oeste 12 Oeste 2.4 -- -- 96
2019-11-28 17:00:00 11.5 4 Noroeste 14 Noroeste 1 -- -- 94
2019-11-28 16:00:00 12 2 Oeste 7 Oeste 0 -- -- 90
2019-11-28 15:00:00 12.1 4 Noroeste 8 Norte 0 -- -- 89
2019-11-28 14:00:00 12.2 4 Noroeste 12 Norte 0 -- -- 88
2019-11-28 13:00:00 12.4 4 Noroeste 9 Noroeste 0 -- -- 87
2019-11-28 12:00:00 11.8 2 Noroeste 5 Norte 0 -- -- 86
2019-11-28 11:00:00 11.4 3 Noroeste 6 Oeste 0 -- -- 87
2019-11-28 10:00:00 10.7 3 Norte 10 Noroeste 0 -- -- 88
2019-11-28 09:00:00 9.8 0 Calma 4 Nordeste 0 -- -- 92
2019-11-28 08:00:00 9.7 2 Sur 6 Oeste 0 -- -- 90
2019-11-28 07:00:00 9.9 0 Calma 11 Sudoeste 0 -- -- 86
2019-11-28 06:00:00 11.1 4 Nordeste 12 Sudoeste 0 -- -- 79
2019-11-28 05:00:00 12.8 3 Oeste 22 Sudoeste 0 -- -- 72
2019-11-28 04:00:00 13.5 7 Oeste 29 Oeste 0 -- -- 67
2019-11-28 03:00:00 12.5 9 Este 20 Este 0 -- -- 72
2019-11-28 02:00:00 12.4 8 Nordeste 22 Sudeste 0 -- -- 73
2019-11-28 01:00:00 12.2 4 Sur 17 Nordeste 0 -- -- 74
2019-11-28 00:00:00 11.1 3 Noroeste 14 Sur 0 -- -- 84
2019-11-27 23:00:00 10 5 Sudeste 10 Sudoeste 0 -- -- 95
2019-11-27 22:00:00 9.5 4 Sudoeste 13 Sudoeste 0 -- -- 97
2019-11-27 21:00:00 10.1 2 Sudoeste 8 Sudoeste 0 -- -- 96
2019-11-27 20:00:00 10.5 0 Calma 6 Sur 0 -- -- 96
2019-11-27 19:00:00 10.9 3 Sur 5 Sur 0 -- -- 95
2019-11-27 18:00:00 11.4 4 Sudoeste 9 Sudoeste 0.8 -- -- 93
2019-11-27 17:00:00 12.6 3 Sur 19 Sur 1.6 -- -- 86
2019-11-27 16:00:00 13.6 10 Sur 32 Sur 0 -- -- 73
2019-11-27 15:00:00 14.9 11 Este 32 Este 0 -- -- 61
2019-11-27 14:00:00 15.2 8 Oeste 30 Sur 0 -- -- 58
2019-11-27 06:00:00 13.1 6 Este 28 Sudoeste 0 -- -- 59
2019-11-27 05:00:00 13.2 17 Sudoeste 61 Sudoeste 0 -- -- 58
2019-11-27 04:00:00 14 25 Sudoeste 54 Sudoeste 0 -- -- 53
2019-11-27 03:00:00 14.5 35 Sudoeste 81 Sudoeste 0 -- -- 49
2019-11-27 02:00:00 14.7 26 Sudoeste 52 Sur 0 -- -- 55
2019-11-27 01:00:00 15.1 10 Sudoeste 40 Sudoeste 0 -- -- 62
2019-11-27 00:00:00 16.1 19 Sudoeste 55 Sudoeste 0 -- -- 57
2019-11-26 23:00:00 16.4 15 Sudoeste 57 Sudoeste 0 -- -- 60
2019-11-26 22:00:00 17.5 23 Sudoeste 63 Sudoeste 0 -- -- 54
2019-11-26 21:00:00 17.9 28 Sudoeste 66 Sudoeste 0 -- -- 51
2019-11-26 20:00:00 17.8 21 Sudoeste 69 Sur 0 -- -- 56
2019-11-26 19:00:00 16.8 15 Sudoeste 43 Sudoeste 0.8 -- -- 79
2019-11-26 18:00:00 16.9 5 Sudeste 51 Sudeste 0 -- -- 80
2019-11-26 17:00:00 19.2 20 Sur 56 Sur 0 -- -- 64
2019-11-26 16:00:00 19.6 17 Sur 37 Sur 0 -- -- 62
2019-11-26 15:00:00 19.4 18 Sur 44 Sur 0 -- -- 60
2019-11-26 14:00:00 18.4 10 Sudeste 45 Sudeste 0 -- -- 67
2019-11-26 13:00:00 18.3 15 Sudeste 36 Sudeste 0 -- -- 66
2019-11-26 12:00:00 17.6 10 Este 27 Este 0 -- -- 68
2019-11-26 11:00:00 16.8 15 Este 32 Este 0 -- -- 70
2019-11-26 10:00:00 16.1 15 Este 35 Sudeste 0 -- -- 71
2019-11-26 09:00:00 15.9 22 Sudeste 46 Sur 0 -- -- 69
2019-11-26 08:00:00 15.4 27 Sur 46 Sur 0 -- -- 69
2019-11-26 07:00:00 15.1 20 Sur 40 Sur 0 -- -- 70
2019-11-26 06:00:00 15.1 22 Sur 43 Sur 0 -- -- 67
2019-11-26 05:00:00 14.4 4 Sur 27 Sudeste 0 -- -- 69
2019-11-26 04:00:00 14.5 13 Sur 35 Sur 0 -- -- 67
2019-11-26 03:00:00 14.4 15 Sur 28 Sudoeste 0 -- -- 66
2019-11-26 02:00:00 14 12 Sur 29 Sur 0 -- -- 70
2019-11-26 01:00:00 12.9 12 Sur 30 Sudeste 0 -- -- 77
2019-11-26 00:00:00 8.2 6 Noroeste 13 Norte 0 -- -- 99
2019-11-25 23:00:00 8.4 3 Oeste 8 Sudoeste 0 -- -- 98
2019-11-25 22:00:00 9 2 Este 6 Sudeste 0 -- -- 97
2019-11-25 21:00:00 10 0 Calma 6 Oeste 0 -- -- 96
2019-11-25 20:00:00 11.3 0 Calma 6 Sudoeste 0 -- -- 93
2019-11-25 19:00:00 12.4 0 Calma 8 Oeste 0 -- -- 90
2019-11-25 18:00:00 13.3 4 Oeste 9 Oeste 0 -- -- 88
2019-11-25 17:00:00 14.1 5 Oeste 10 Oeste 0 -- -- 85
2019-11-25 16:00:00 14.6 6 Noroeste 13 Noroeste 0 -- -- 83
2019-11-25 15:00:00 15.8 6 Noroeste 17 Noroeste 0 -- -- 77
2019-11-25 14:00:00 17.3 4 Nordeste 19 Noroeste 0 -- -- 66
2019-11-25 13:00:00 16.2 4 Este 8 Este 0 -- -- 71
2019-11-25 12:00:00 15.4 3 Sur 18 Nordeste 0 -- -- 73
2019-11-25 11:00:00 14.4 3 Nordeste 7 Norte 0 -- -- 80
2019-11-25 10:00:00 12.4 0 Calma 8 Oeste 0 -- -- 87
2019-11-25 09:00:00 10.9 5 Oeste 12 Sudoeste 0 -- -- 90
2019-11-25 08:00:00 10.8 3 Sudeste 6 Sur 0 -- -- 88
2019-11-25 07:00:00 11.9 4 Sur 10 Oeste 0 -- -- 81
2019-11-25 06:00:00 13.4 6 Sudoeste 18 Sur 0 -- -- 75
2019-11-25 05:00:00 13.6 7 Sudeste 25 Sur 0 -- -- 73
2019-11-25 04:00:00 13 9 Sur 27 Sudeste 0 -- -- 74
2019-11-25 03:00:00 13 12 Sur 27 Sudeste 0 -- -- 74
2019-11-25 02:00:00 12.3 7 Sudeste 24 Sur 0 -- -- 76
2019-11-25 01:00:00 12.9 13 Sur 34 Sudeste 0 -- -- 73
2019-11-25 00:00:00 12.6 10 Sur 28 Sur 0 -- -- 74
2019-11-24 23:00:00 11 13 Sur 22 Sur 0 -- -- 83
2019-11-24 22:00:00 10.9 4 Sur 24 Sur 2.6 -- -- 87
2019-11-24 21:00:00 12 13 Sur 28 Sudeste 0.2 -- -- 74
2019-11-24 20:00:00 11.7 13 Sur 29 Sur 0 -- -- 68
2019-11-24 19:00:00 11.5 10 Sur 26 Sudoeste 0 -- -- 68
2019-11-24 18:00:00 11.6 6 Sur 33 Sur 0 -- -- 64
2019-11-24 17:00:00 11.9 6 Sur 26 Sur 0 -- -- 63
2019-11-24 16:00:00 12.4 9 Sur 29 Sur 0 -- -- 62
2019-11-24 15:00:00 12.7 13 Sur 29 Sur 0 -- -- 63
2019-11-24 14:00:00 12.7 4 Sudeste 10 Sudeste 0 -- -- 74
2019-11-24 13:00:00 11.5 0 Calma 5 Nordeste 0 -- -- 85
2019-11-24 12:00:00 9.5 0 Calma 3 Norte 0 -- -- 97
2019-11-24 11:00:00 8.3 0 Calma 6 Este 0 -- -- 99
2019-11-24 10:00:00 7.7 2 Sur 7 Nordeste 0 -- -- 100
2019-11-24 09:00:00 7.3 2 Nordeste 6 Nordeste 0.2 -- -- 100
2019-11-24 08:00:00 7.2 0 Calma 5 Sudeste 0.8 -- -- 99
2019-11-24 07:00:00 7.2 2 Este 8 Oeste 0.6 -- -- 99
2019-11-24 06:00:00 7.3 0 Calma 7 Sudeste 0.2 -- -- 99
2019-11-24 05:00:00 7.5 0 Calma 6 Oeste 1 -- -- 99
2019-11-24 04:00:00 7.4 3 Sudoeste 7 Sudoeste 0.6 -- -- 98
2019-11-24 03:00:00 7.5 0 Calma 9 Oeste 0.6 -- -- 97
2019-11-24 02:00:00 7.6 2 Oeste 7 Sudeste 0.4 -- -- 95
2019-11-24 01:00:00 8 5 Sudeste 10 Sudoeste 0 -- -- 92
2019-11-24 00:00:00 8.2 3 Oeste 9 Sudeste 1.2 -- -- 92
2019-11-23 23:00:00 8.3 0 Calma 9 Este 0.2 -- -- 92
2019-11-23 22:00:00 8.2 3 Oeste 12 Sudoeste 0 -- -- 93
2019-11-23 21:00:00 8.2 0 Calma 8 Este 0 -- -- 92
2019-11-23 20:00:00 8.4 5 Sudoeste 8 Sudoeste 0 -- -- 91
2019-11-23 19:00:00 9.3 7 Norte 29 Noroeste 0.4 -- -- 79
2019-11-23 18:00:00 9.7 5 Norte 15 Norte 0 -- -- 80
2019-11-23 17:00:00 10.6 9 Noroeste 26 Norte 0.4 -- -- 75
2019-11-23 16:00:00 11.4 11 Noroeste 33 Oeste 0 -- -- 68
2019-11-23 15:00:00 10.4 5 Norte 25 Sudoeste 0.4 -- -- 78
2019-11-23 14:00:00 10.1 11 Noroeste 40 Sudoeste 1 -- -- 80
2019-11-23 13:00:00 11.4 10 Noroeste 35 Noroeste 0 -- -- 65
2019-11-23 12:00:00 10.2 10 Oeste 37 Oeste 0.6 -- -- 74
2019-11-23 11:00:00 9.4 10 Noroeste 46 Oeste 0.6 -- -- 82
2019-11-23 10:00:00 9.6 13 Oeste 46 Oeste 0.4 -- -- 79
2019-11-23 09:00:00 9.2 10 Noroeste 27 Noroeste 2.2 -- -- 86
2019-11-23 08:00:00 9.6 8 Oeste 20 Noroeste 4.6 -- -- 88
2019-11-23 07:00:00 8.7 5 Este 22 Oeste 6 -- -- 94
2019-11-23 06:00:00 9.2 5 Sudoeste 35 Sur 3.2 -- -- 86
2019-11-23 05:00:00 10.6 13 Sudoeste 26 Sudoeste 0.6 -- -- 74
2019-11-23 04:00:00 11.5 7 Sudoeste 28 Sur 0.2 -- -- 70
2019-11-23 03:00:00 12.4 7 Este 36 Sudeste 0 -- -- 65
2019-11-23 02:00:00 13.1 11 Sudoeste 43 Sudoeste 0 -- -- 60
2019-11-23 01:00:00 13 4 Nordeste 27 Sur 0 -- -- 62
2019-11-23 00:00:00 13.1 7 Oeste 22 Este 0 -- -- 63
2019-11-22 23:00:00 13 6 Nordeste 38 Sur 0 -- -- 65
2019-11-22 22:00:00 13.2 14 Este 43 Sudoeste 0 -- -- 63
2019-11-22 21:00:00 13.3 16 Sur 46 Sudeste 0 -- -- 60
2019-11-22 20:00:00 13 17 Sur 46 Sudeste 0 -- -- 64
2019-11-22 19:00:00 11.4 6 Sudeste 38 Sur 0.2 -- -- 86
2019-11-22 18:00:00 12.6 19 Sur 47 Sur 1.4 -- -- 82
2019-11-22 17:00:00 12.5 17 Sur 42 Sur 0 -- -- 76
2019-11-22 16:00:00 12.1 18 Sur 39 Sur 0 -- -- 82
2019-11-22 15:00:00 10.8 17 Sudeste 43 Sudeste 3.8 -- -- 89
2019-11-22 14:00:00 12.6 22 Sudeste 38 Este 0 -- -- 71
2019-11-22 13:00:00 13 16 Sudeste 46 Sudeste 0 -- -- 67
2019-11-22 12:00:00 11.5 14 Sudeste 56 Este 0 -- -- 72
2019-11-22 11:00:00 11 29 Este 50 Este 0 -- -- 74
2019-11-22 10:00:00 10.6 17 Sudeste 39 Sudeste 0 -- -- 70
2019-11-22 09:00:00 10.7 11 Sudeste 37 Sudeste 0 -- -- 66
2019-11-22 08:00:00 10.6 12 Sudeste 27 Sudeste 0 -- -- 65
2019-11-22 07:00:00 10.5 12 Sudeste 28 Sudeste 0 -- -- 67
2019-11-22 06:00:00 10 13 Este 30 Este 0 -- -- 70
2019-11-22 05:00:00 10.1 14 Este 27 Este 0 -- -- 68
2019-11-22 04:00:00 9.8 13 Este 33 Sudeste 0 -- -- 67
2019-11-22 03:00:00 10 14 Este 26 Este 0 -- -- 67
2019-11-22 02:00:00 10 13 Este 25 Este 0 -- -- 67
2019-11-22 01:00:00 8.6 10 Sudeste 18 Sudeste 0 -- -- 76
2019-11-22 00:00:00 9 5 Este 23 Este 0 -- -- 71
2019-11-21 23:00:00 8 9 Sur 18 Sur 0 -- -- 73
2019-11-21 22:00:00 6.7 4 Sudeste 10 Este 0 -- -- 80
2019-11-21 21:00:00 5.9 0 Calma 8 Sudoeste 0 -- -- 83
2019-11-21 20:00:00 6.4 0 Calma 9 Sudoeste 0 -- -- 79
2019-11-21 19:00:00 7.4 2 Sudoeste 12 Sudoeste 0 -- -- 74
2019-11-21 18:00:00 9.3 12 Sudoeste 15 Sudoeste 0 -- -- 67
2019-11-21 17:00:00 12.6 3 Sur 16 Oeste 0 -- -- 53
2019-11-21 16:00:00 13.6 9 Oeste 22 Sudoeste 0 -- -- 45
2019-11-21 15:00:00 14 13 Sudoeste 26 Sudoeste 0 -- -- 48
2019-11-21 14:00:00 14 5 Sudoeste 26 Sudoeste 0 -- -- 50
2019-11-21 13:00:00 14.9 8 Sur 23 Sur 0 -- -- 54
2019-11-21 12:00:00 12.5 10 Sudeste 28 Sur 0 -- -- 62
2019-11-21 11:00:00 11.5 9 Sudeste 19 Sur 0 -- -- 65
2019-11-21 10:00:00 10.8 3 Sur 19 Sudeste 0 -- -- 68
2019-11-21 09:00:00 10 6 Sudoeste 21 Sur 0 -- -- 69
2019-11-21 08:00:00 -- -- -- -- -- -- -- -- --
2019-11-21 07:00:00 -- -- -- -- -- -- -- -- --
2019-11-21 06:00:00 -- -- -- -- -- -- -- -- --
2019-11-21 05:00:00 -- -- -- -- -- -- -- -- --
2019-11-21 04:00:00 -- -- -- -- -- -- -- -- --
2019-11-21 03:00:00 -- -- -- -- -- -- -- -- --
2019-11-21 02:00:00 -- -- -- -- -- -- -- -- --
2019-11-21 01:00:00 -- -- -- -- -- -- -- -- --
2019-11-21 00:00:00 -- -- -- -- -- -- -- -- --
2019-11-20 23:00:00 -- -- -- -- -- -- -- -- --
2019-11-20 22:00:00 -- -- -- -- -- -- -- -- --
2019-11-20 21:00:00 -- -- -- -- -- -- -- -- --
2019-11-20 20:00:00 -- -- -- -- -- -- -- -- --
2019-11-20 19:00:00 9.5 8 Sur 22 Sudeste 0 -- -- 71
2019-11-20 18:00:00 9.7 8 Sur 23 Sur 0 -- -- 68
2019-11-20 17:00:00 10 7 Sur 20 Sur 0 -- -- 67
2019-11-20 16:00:00 11.6 5 Sur 22 Este 0 -- -- 63
2019-11-20 15:00:00 12.2 12 Sudeste 24 Sur 0 -- -- 60
2019-11-20 14:00:00 11.7 16 Sur 35 Sur 0 -- -- 60
2019-11-20 13:00:00 11.1 16 Sudeste 30 Este 0 -- -- 61
2019-11-20 12:00:00 12.1 11 Sudeste 21 Sudeste 0 -- -- 59
2019-11-20 11:00:00 8.7 12 Sudeste 28 Sudeste 0 -- -- 69
2019-11-20 10:00:00 8 10 Sur 28 Este 0 -- -- 72
2019-11-20 09:00:00 7.7 18 Sudeste 27 Este 0 -- -- 71
2019-11-20 08:00:00 7.2 9 Sudeste 22 Este 0 -- -- 75
2019-11-20 07:00:00 6.9 10 Este 22 Sudeste 0 -- -- 76
2019-11-20 06:00:00 6.7 9 Este 20 Este 0 -- -- 79
2019-11-20 05:00:00 5.9 4 Sudeste 14 Este 0 -- -- 86
2019-11-20 04:00:00 4.5 3 Sur 13 Sudoeste 0 -- -- 94
2019-11-20 03:00:00 3.4 3 Sudoeste 10 Oeste 0 -- -- 97
2019-11-20 02:00:00 3.3 3 Oeste 10 Sudoeste 0 -- -- 97
2019-11-20 01:00:00 3.3 4 Oeste 7 Sudoeste 0 -- -- 97
2019-11-20 00:00:00 3.2 0 Calma 6 Oeste 0 -- -- 97
2019-11-19 23:00:00 3.7 3 Oeste 11 Sudoeste -- -- -- 95
2019-11-19 22:00:00 4.2 6 Sudoeste 10 Sudoeste 0 -- -- 95
2019-11-19 21:00:00 4.8 2 Sudoeste 10 Sudoeste 0 -- -- 93
2019-11-19 20:00:00 5.3 4 Sudoeste 10 Sudoeste 0 -- -- 91
2019-11-19 19:00:00 6.6 2 Sudeste 6 Este 0 -- -- 86
2019-11-19 18:00:00 8.3 4 Este 9 Este 0 -- -- 78
2019-11-19 17:00:00 9.9 3 Sur 14 Sur 0 -- -- 72
2019-11-19 16:00:00 10.8 9 Sur 17 Sur 0 -- -- 64
2019-11-19 15:00:00 11.3 4 Norte 12 Noroeste 0 -- -- 65
2019-11-19 14:00:00 11.3 2 Este 18 Sur 0 -- -- 68
2019-11-19 13:00:00 11.8 9 Sur 17 Sur 0 -- -- 66
2019-11-19 12:00:00 8.1 2 Norte 5 Nordeste 0 -- -- 93
2019-11-19 11:00:00 5.7 3 Nordeste 5 Nordeste 0 -- -- 100
2019-11-19 10:00:00 3 0 Calma 7 Sudoeste 0 -- -- 100
2019-11-19 09:00:00 2.4 2 Sudoeste 6 Sur 0 -- -- 100
2019-11-19 08:00:00 2.8 3 Sur 6 Oeste 0 -- -- 100
2019-11-19 07:00:00 3.1 4 Sudoeste 5 Oeste 0 -- -- 100
2019-11-19 06:00:00 3.6 0 Calma 5 Sudoeste 0.2 -- -- 100
2019-11-19 05:00:00 3.9 3 Sudoeste 6 Sudoeste 0 -- -- 100
2019-11-19 04:00:00 4.3 2 Sudoeste 5 Sudoeste 0 -- -- 100
2019-11-19 03:00:00 4.7 0 Calma 3 Oeste 0 -- -- 100
2019-11-19 02:00:00 4.9 0 Calma 5 Sudoeste 0 -- -- 100
2019-11-19 01:00:00 5.1 2 Nordeste 3 Sudoeste 0 -- -- 100
2019-11-19 00:00:00 5 2 Sudoeste 5 Sudoeste 0.2 -- -- 100
2019-11-18 23:00:00 4.4 2 Sudoeste 7 Sudoeste 0 -- -- 99
2019-11-18 22:00:00 5.8 0 Calma 4 Sur 0 -- -- 98
2019-11-18 21:00:00 5.9 0 Calma 5 Sudoeste 0 -- -- 98
2019-11-18 20:00:00 5.9 2 Oeste 9 Sudoeste 0 -- -- 95
2019-11-18 19:00:00 7.5 3 Oeste 9 Sudoeste 0 -- -- 93
2019-11-18 18:00:00 8.1 4 Oeste 9 Noroeste 0 -- -- 90
2019-11-18 17:00:00 9 3 Oeste 8 Sudoeste 0 -- -- 84
2019-11-18 16:00:00 8.6 3 Oeste 11 Oeste 0 -- -- 87
2019-11-18 15:00:00 8.6 4 Oeste 10 Oeste 0 -- -- 89
2019-11-18 14:00:00 8.4 5 Noroeste 12 Noroeste 0 -- -- 88
2019-11-18 13:00:00 7.8 5 Noroeste 17 Sudoeste 1.2 -- -- 93
2019-11-18 12:00:00 8.1 7 Noroeste 15 Oeste 0.2 -- -- 92
2019-11-18 11:00:00 7 3 Noroeste 18 Noroeste 1 -- -- 96
2019-11-18 10:00:00 7.2 0 Calma 6 Este 0 -- -- 98
2019-11-18 09:00:00 6.8 0 Calma 8 Noroeste 0 -- -- 98
2019-11-18 08:00:00 6.9 3 Noroeste 17 Oeste 0.4 -- -- 96
2019-11-18 07:00:00 7.3 2 Norte 12 Noroeste 0 -- -- 93
2019-11-18 06:00:00 7.3 5 Noroeste 11 Noroeste 0.2 -- -- 93
2019-11-18 05:00:00 6.9 4 Norte 10 Noroeste 0.6 -- -- 97
2019-11-18 04:00:00 6.9 3 Noroeste 16 Noroeste 1.4 -- -- 98
2019-11-18 03:00:00 6.7 2 Noroeste 5 Sudoeste 0.4 -- -- 100
2019-11-18 02:00:00 6.7 2 Sudoeste 12 Nordeste 2.2 -- -- 99
2019-11-18 01:00:00 6.7 4 Sur 9 Norte 1.2 -- -- 98
2019-11-18 00:00:00 6.9 0 Calma 11 Noroeste 0 -- -- 95
2019-11-17 23:00:00 7 5 Noroeste 30 Oeste 2 -- -- 92
2019-11-17 22:00:00 7.6 10 Oeste 27 Oeste 1.6 -- -- 87
2019-11-17 21:00:00 8 14 Oeste 28 Oeste 0.4 -- -- 90
2019-11-17 20:00:00 6.9 0 Calma 7 Sudeste 0 -- -- 97
2019-11-17 19:00:00 7.6 4 Sudoeste 10 Sudoeste 0 -- -- 96
2019-11-17 18:00:00 8.7 2 Sudeste 11 Sudoeste 0 -- -- 93
2019-11-17 17:00:00 9.7 4 Nordeste 12 Este 0 -- -- 92
2019-11-17 16:00:00 10 5 Este 11 Norte 0.4 -- -- 92
2019-11-17 15:00:00 10.3 7 Norte 24 Sur 0.4 -- -- 89
2019-11-17 14:00:00 11.8 6 Oeste 21 Sur 0 -- -- 76
2019-11-17 13:00:00 9.2 2 Este 8 Noroeste 0 -- -- 94
2019-11-17 12:00:00 8.5 3 Noroeste 10 Norte 0.2 -- -- 94
2019-11-17 11:00:00 7.6 5 Nordeste 9 Nordeste 0.2 -- -- 99
2019-11-17 10:00:00 6.4 3 Oeste 7 Sudoeste 1.8 -- -- 99
2019-11-17 09:00:00 6 4 Oeste 8 Oeste 0 -- -- 100
2019-11-17 08:00:00 5.8 4 Oeste 6 Sudoeste 0 -- -- 100
2019-11-17 07:00:00 5.9 0 Calma 3 Noroeste 0.2 -- -- 100
2019-11-17 06:00:00 6 0 Calma 3 Noroeste 0.2 -- -- 100
2019-11-17 05:00:00 6.1 0 Calma 5 Sudoeste 0 -- -- 100
2019-11-17 04:00:00 5.9 2 Sudeste 5 Sudoeste 0.2 -- -- 100
2019-11-17 03:00:00 5.8 2 Norte 6 Nordeste 0 -- -- 100
2019-11-17 02:00:00 5.7 0 Calma 6 Oeste 0 -- -- 99
2019-11-17 01:00:00 5.5 0 Calma 4 Este 0 -- -- 99
2019-11-17 00:00:00 5.5 2 Oeste 5 Sur 0 -- -- 99
2019-11-16 23:00:00 5.2 2 Sur 8 Sur 0 -- -- 99
2019-11-16 22:00:00 5.6 3 Sudoeste 9 Sudoeste 0 -- -- 98
2019-11-16 21:00:00 6.2 3 Sudoeste 8 Sur 0 -- -- 98
2019-11-16 20:00:00 6.7 2 Sudoeste 8 Norte 0 -- -- 98
2019-11-16 19:00:00 7.1 2 Sur 6 Sudoeste 0.2 -- -- 97
2019-11-16 18:00:00 7.5 3 Sudeste 7 Este 0.2 -- -- 96
2019-11-16 17:00:00 8.1 0 Calma 3 Oeste 0.4 -- -- 94
2019-11-16 16:00:00 8.3 0 Calma 12 Norte 0.4 -- -- 91
2019-11-16 15:00:00 9 6 Noroeste 24 Oeste 0 -- -- 81
2019-11-16 14:00:00 7.6 3 Norte 8 Este 0.2 -- -- 98
2019-11-16 13:00:00 6.4 2 Este 4 Sur 1.2 -- -- 99
2019-11-16 12:00:00 5.5 3 Norte 8 Nordeste 2 -- -- 99
2019-11-16 11:00:00 5.6 9 Oeste 30 Oeste 1.8 -- -- 99
2019-11-16 10:00:00 3.4 2 Norte 6 Norte 0.2 -- -- 100
2019-11-16 09:00:00 2.2 0 Calma 5 Sudeste 0 -- -- 100
2019-11-16 08:00:00 1.6 0 Calma 5 Nordeste 0 -- -- 100
2019-11-16 07:00:00 1.3 0 Calma 4 Sudoeste 0 -- -- 100
2019-11-16 06:00:00 1 0 Calma 3 Este 0 -- -- 100
2019-11-16 05:00:00 1.5 2 Sudoeste 6 Sudoeste 0 -- -- 100
2019-11-16 04:00:00 1.7 0 Calma 3 Este 0 -- -- 100
2019-11-16 03:00:00 1.8 3 Este 5 Este 0 -- -- 100
2019-11-16 02:00:00 2.2 0 Calma 4 Oeste 0 -- -- 100
2019-11-16 01:00:00 2.7 0 Calma 8 Sur 0 -- -- 100
2019-11-16 00:00:00 3 0 Calma 4 Norte 0 -- -- 100
2019-11-15 23:00:00 4 0 Calma 5 Sudoeste 0 -- -- 99
2019-11-15 22:00:00 4.5 3 Sudoeste 4 Sudoeste 0 -- -- 98
2019-11-15 21:00:00 4.9 0 Calma 6 Este 0 -- -- 98
2019-11-15 20:00:00 5.2 0 Calma 4 Sudoeste 0.6 -- -- 97
2019-11-15 19:00:00 5.3 0 Calma 4 Sur 0 -- -- 96
2019-11-15 18:00:00 5.6 0 Calma 8 Sur 0 -- -- 94
2019-11-15 17:00:00 6 4 Sudoeste 9 Sur 0 -- -- 92
2019-11-15 16:00:00 6.2 3 Este 8 Nordeste 0 -- -- 94
2019-11-15 15:00:00 6.2 4 Noroeste 13 Oeste 1.8 -- -- 89
2019-11-15 14:00:00 6.9 0 Calma 28 Oeste 2.8 -- -- 93
2019-11-15 13:00:00 7.9 6 Oeste 20 Noroeste 1 -- -- 89
2019-11-15 12:00:00 7 8 Noroeste 27 Noroeste 4.4 -- -- 94
2019-11-15 11:00:00 6.7 5 Oeste 32 Sudoeste 2.4 -- -- 93
2019-11-15 10:00:00 6.9 12 Oeste 29 Oeste 0.8 -- -- 86
2019-11-15 09:00:00 6.3 9 Oeste 26 Sudoeste 1 -- -- 89
2019-11-15 08:00:00 5.8 5 Oeste 25 Oeste 0.4 -- -- 94
2019-11-15 07:00:00 5.1 3 Nordeste 18 Sudoeste 0.6 -- -- 95
2019-11-15 06:00:00 5.1 2 Sur 10 Sur 0.8 -- -- 94
2019-11-15 05:00:00 4.8 4 Este 11 Este 0.6 -- -- 97
2019-11-15 04:00:00 3.8 2 Oeste 12 Sudoeste 0.2 -- -- 99
2019-11-15 03:00:00 3 2 Sur 10 Sudoeste 0 -- -- 99
2019-11-15 02:00:00 2.2 3 Oeste 9 Sudoeste 0 -- -- 98
2019-11-15 01:00:00 2.2 3 Sudoeste 7 Oeste 0 -- -- 96
2019-11-15 00:00:00 3.1 0 Calma 8 Sudoeste 0 -- -- 94
2019-11-14 23:00:00 4.5 0 Calma 9 Noroeste 0 -- -- 92
2019-11-14 22:00:00 5.2 6 Norte 12 Oeste 0 -- -- 91
2019-11-14 21:00:00 6.1 6 Noroeste 15 Noroeste 0 -- -- 90
2019-11-14 20:00:00 6.7 3 Noroeste 13 Noroeste 0 -- -- 88
2019-11-14 19:00:00 7 6 Noroeste 13 Noroeste 0 -- -- 86
2019-11-14 18:00:00 7.8 9 Noroeste 19 Oeste 0 -- -- 82
2019-11-14 17:00:00 9.8 9 Oeste 22 Oeste 0 -- -- 63
2019-11-14 16:00:00 10.4 4 Nordeste 28 Sudoeste 0 -- -- 53
2019-11-14 15:00:00 11.5 13 Sudoeste 25 Sudoeste 0 -- -- 54
2019-11-14 14:00:00 11.3 11 Sudoeste 24 Sur 0 -- -- 53
2019-11-14 13:00:00 11 8 Sudoeste 19 Sur 0 -- -- 58
2019-11-14 12:00:00 10.7 12 Sudoeste 29 Sudoeste 0 -- -- 61
2019-11-14 11:00:00 9.7 5 Sur 21 Sudeste 0 -- -- 66
2019-11-14 10:00:00 6.8 13 Sur 21 Sur 0 -- -- 83
2019-11-14 09:00:00 4.3 0 Calma 20 Este 0 -- -- 96
2019-11-14 08:00:00 4.3 5 Sudeste 10 Sudeste 0 -- -- 96
2019-11-14 07:00:00 4.8 6 Sudeste 11 Sudeste 0 -- -- 97
2019-11-14 06:00:00 5.2 3 Sudeste 6 Nordeste 0.8 -- -- 97
2019-11-14 05:00:00 5.5 4 Nordeste 13 Norte 1.4 -- -- 95
2019-11-14 04:00:00 6.3 5 Noroeste 13 Noroeste 2.6 -- -- 96
2019-11-14 03:00:00 7.2 4 Norte 15 Noroeste 4 -- -- 97
2019-11-14 02:00:00 8.1 6 Norte 14 Nordeste 1.8 -- -- 95
2019-11-14 01:00:00 8.3 5 Noroeste 18 Sudoeste 0 -- -- 96
2019-11-14 00:00:00 7.8 4 Norte 12 Sudeste 0 -- -- 97
2019-11-13 23:00:00 7.6 5 Sudeste 10 Sur 0 -- -- 97
2019-11-13 22:00:00 8.3 0 Calma 20 Sur 0 -- -- 96
2019-11-13 21:00:00 8.6 5 Sudeste 11 Sudeste 0 -- -- 97
2019-11-13 20:00:00 8.6 0 Calma 6 Oeste 0 -- -- 96
2019-11-13 19:00:00 9.2 6 Sudoeste 9 Sudoeste 0 -- -- 92
2019-11-13 18:00:00 10.6 3 Sur 12 Sur 0 -- -- 88
2019-11-13 17:00:00 11.2 4 Sudoeste 12 Sur 0 -- -- 86
2019-11-13 16:00:00 11.6 6 Noroeste 12 Noroeste 0 -- -- 79
2019-11-13 15:00:00 11.1 3 Noroeste 19 Sudoeste 0 -- -- 83
2019-11-13 14:00:00 11.7 12 Noroeste 22 Noroeste 0 -- -- 78
2019-11-13 13:00:00 12.4 6 Noroeste 21 Noroeste 0 -- -- 78
2019-11-13 12:00:00 11.6 5 Noroeste 17 Noroeste 0 -- -- 89
2019-11-13 11:00:00 11.2 3 Norte 6 Noroeste 0 -- -- 91
2019-11-13 10:00:00 10.1 3 Noroeste 11 Noroeste 0 -- -- 95
2019-11-13 09:00:00 9.8 6 Noroeste 14 Oeste 0.2 -- -- 97
2019-11-13 08:00:00 9.4 6 Oeste 17 Oeste 1.2 -- -- 98
2019-11-13 07:00:00 9.4 7 Noroeste 14 Noroeste 3 -- -- 99
2019-11-13 06:00:00 9.2 4 Norte 8 Oeste 0.8 -- -- 98
2019-11-13 05:00:00 9.1 4 Oeste 17 Noroeste 2.6 -- -- 99
2019-11-13 04:00:00 9 10 Noroeste 21 Oeste 3.2 -- -- 99
2019-11-13 03:00:00 8.7 0 Calma 5 Oeste 0.2 -- -- 100
2019-11-13 02:00:00 8.6 0 Calma 4 Sudoeste 0 -- -- 99
2019-11-13 01:00:00 8.8 0 Calma 7 Oeste 0 -- -- 98
2019-11-13 00:00:00 8.9 4 Oeste 10 Oeste 0.2 -- -- 98
2019-11-12 23:00:00 9.1 4 Sudoeste 6 Oeste 0.8 -- -- 97
2019-11-12 22:00:00 9 2 Sudeste 8 Nordeste 1.6 -- -- 97
2019-11-12 21:00:00 9.3 3 Este 8 Sudoeste 2.6 -- -- 96
2019-11-12 20:00:00 9.6 0 Calma 5 Sudoeste 3.6 -- -- 96
2019-11-12 19:00:00 10.1 0 Calma 8 Sudoeste 0.6 -- -- 94
2019-11-12 18:00:00 10.6 4 Sudoeste 9 Sudoeste 0.2 -- -- 92
2019-11-12 17:00:00 12.4 2 Sudoeste 6 Este 0 -- -- 83
2019-11-12 16:00:00 12.9 2 Sudeste 7 Norte 0 -- -- 72
2019-11-12 15:00:00 12.9 4 Norte 9 Nordeste 0 -- -- 69
2019-11-12 14:00:00 12.6 3 Norte 12 Norte 0 -- -- 73
2019-11-12 13:00:00 12.8 4 Nordeste 9 Nordeste 0 -- -- 76
2019-11-12 12:00:00 10.7 2 Noroeste 5 Nordeste 0 -- -- 88
2019-11-12 11:00:00 9.2 2 Sur 5 Este 0 -- -- 99
2019-11-12 10:00:00 8 0 Calma 6 Este 0 -- -- 100
2019-11-12 09:00:00 6.9 2 Este 7 Sudeste 0 -- -- 100
2019-11-12 08:00:00 6.5 4 Sudeste 9 Este 0 -- -- 100
2019-11-12 07:00:00 6.7 3 Este 8 Sudeste 0.4 -- -- 100
2019-11-12 06:00:00 6.8 0 Calma 5 Sudeste 0.6 -- -- 100
2019-11-12 05:00:00 6.7 0 Calma 6 Sudoeste 0.4 -- -- 100
2019-11-12 04:00:00 6.7 2 Oeste 4 Oeste 0.2 -- -- 100
2019-11-12 03:00:00 6.6 2 Este 4 Este 0 -- -- 100
2019-11-12 02:00:00 6.5 0 Calma 5 Sudeste 0.2 -- -- 100
2019-11-12 01:00:00 6.4 0 Calma 7 Oeste 0.2 -- -- 100
2019-11-12 00:00:00 6 3 Oeste 6 Sudoeste 0 -- -- 100